(°C)
-6°
-7°
-7°
-8°
-8°
-8°
-9°
(°C)
-11°
-11°
-12°
-12°
-12°
-13°
-13°
ΔΝΔ
ΝΔ
ΝΝΔ
Ν
ΝΝΑ
ΝΑ
ΝΑ
(χλμ / ω)
7-18
6-18
6-16
6-12
6-10
6-9
6-9
(χιλιοστά)
0
0
0
0
0
0
0
(%)
2
2
2
1
1
4
7

Sun elevation

/ -35°
sun-icon
UV 11
06:22
19:47
Αύξων μηνίσκος (φάση σελήνης) (59°)
09:38
00:26

METAR for Walden (K33V)

Χρόνος Conditions Θερμοκρασία/
Σημείο δρόσου
Άνεμος Ορατότητα Καιρός Νέφη Πίεση Change Raw
VFR -6.2°C / -9.5°C 350º 4kt >10km - Clear - K33V 180515Z AUTO 35004KT 10SM CLR M06/M09 A3026 RMK AO2 T10621095
VFR -5.5°C / -9.5°C 340º 4kt >10km - Clear - K33V 180455Z AUTO 34004KT 10SM CLR M05/M09 A3025 RMK AO2 T10551095
VFR -5.5°C / -9.6°C 290º 3kt >10km - Clear - K33V 180435Z AUTO 29003KT 10SM CLR M05/M10 A3025 RMK AO2 T10551096
VFR -5°C / °C variable 0kt >10km - Clear - K33V 180415Z AUTO 00000KT 10SM CLR M05/M10 A3025 RMK AO2 T10501103
VFR -3.4°C / °C 300º 3kt >10km - Clear - K33V 180355Z AUTO 30003KT 10SM CLR M03/M10 A3025 RMK AO2 T10341105 400271090
VFR -4.1°C / °C variable 0kt >10km - Clear - K33V 180335Z AUTO 00000KT 10SM CLR M04/M10 A3025 RMK AO2 T10411104
VFR -4.2°C / °C 350º 3kt >10km - Clear - K33V 180315Z AUTO 35003KT 10SM CLR M04/M10 A3024 RMK AO2 T10421103
VFR -4.6°C / °C 360º 4kt >10km - Clear - K33V 180255Z AUTO 36004KT 10SM CLR M05/M10 A3023 RMK AO2 T10461101
VFR -3.7°C / °C 20º 6kt >10km - Clear - K33V 180235Z AUTO 02006KT 10SM CLR M04/M10 A3022 RMK AO2 T10371102
VFR -2.7°C / -9.5°C 40º 3kt >10km - Clear - K33V 180215Z AUTO 04003KT 10SM CLR M03/M09 A3021 RMK AO2 T10271095
VFR -1.7°C / -9.5°C 40º 5kt >10km - Clear - K33V 180155Z AUTO 04005KT 10SM CLR M02/M09 A3021 RMK AO2 T10171095
VFR -1.3°C / °C 40º 7kt >10km - Scattered Clouds 4400ft - K33V 180135Z AUTO 04007KT 10SM SCT044 M01/M10 A3021 RMK AO2 T10131100
VFR -1.1°C / °C 40º 9kt >10km - Scattered Clouds 4600ft - K33V 180115Z AUTO 04009KT 10SM SCT046 M01/M11 A3020 RMK AO2 T10111107
VFR 0°C / °C 40º 9kt >10km - Clear - K33V 180055Z AUTO 04009KT 10SM CLR 00/M10 A3020 RMK AO2 T00001103
VFR 1.3°C / -9.5°C 360º 9kt >10km - Scattered Clouds 4200ft - K33V 180035Z AUTO 36009KT 10SM SCT042 01/M09 A3019 RMK AO2 T00131095
VFR 1.3°C / -9.7°C 350º variable 270º to 360º 8kt >10km - Scattered Clouds 4200ft - K33V 180015Z AUTO 35008KT 270V360 10SM SCT042 01/M10 A3019 RMK AO2 T00131097
VFR 1.3°C / -9.8°C 340º 8kt >10km - Broken Clouds 4200ft - K33V 172355Z AUTO 34008KT 10SM BKN042 01/M10 A3019 RMK AO2 T00131098 10027 21013
VFR 1.6°C / -9.9°C 330º 9kt Gust 19kt >10km - Broken Clouds 4400ft - K33V 172335Z AUTO 33009G19KT 10SM BKN044 BKN050 02/M10 A3018 RMK AO2 T00161099
VFR 2.4°C / -9.9°C 320º 9kt Gust 17kt >10km - Broken Clouds 4400ft - K33V 172315Z AUTO 32009G17KT 10SM BKN044 BKN050 02/M10 A3018 RMK AO2 T00241099
VFR 1.6°C / °C 350º variable 320º to 020º 9kt >10km - Scattered Clouds 4500ft - K33V 172255Z AUTO 35009KT 320V020 10SM SCT045 SCT050 02/M10 A3017 RMK AO2 T00161103
VFR 2.7°C / -9.1°C 330º 11kt Gust 17kt >10km - Scattered Clouds 4500ft - K33V 172235Z AUTO 33011G17KT 10SM SCT045 SCT060 03/M09 A3017 RMK AO2 T00271091
VFR 2.5°C / -9.6°C 340º 11kt Gust 16kt >10km - Scattered Clouds 4500ft - K33V 172215Z AUTO 34011G16KT 10SM SCT045 SCT060 03/M10 A3016 RMK AO2 T00251096
VFR 2.5°C / -9.4°C 320º variable 270º to 330º 11kt Gust 16kt >10km - Scattered Clouds 4500ft - K33V 172155Z AUTO 32011G16KT 270V330 10SM SCT045 SCT050 03/M09 A3016 RMK AO2 T00251094
VFR 1.3°C / °C 340º 11kt >10km - Scattered Clouds 4700ft - K33V 172135Z AUTO 34011KT 10SM SCT047 SCT050 01/M10 A3017 RMK AO2 T00131100

VFR

-6.2°C / -9.5°C

[Περισσότερο]
Άνεμος 350º 4kt
Ορατότητα >10km
Καιρός -
Νέφη Clear
Πίεση
Change -
Raw K33V 180515Z AUTO 35004KT 10SM CLR M06/M09 A3026 RMK AO2 T10621095

VFR

-5.5°C / -9.5°C

[Περισσότερο]
Άνεμος 340º 4kt
Ορατότητα >10km
Καιρός -
Νέφη Clear
Πίεση
Change -
Raw K33V 180455Z AUTO 34004KT 10SM CLR M05/M09 A3025 RMK AO2 T10551095

VFR

-5.5°C / -9.6°C

[Περισσότερο]
Άνεμος 290º 3kt
Ορατότητα >10km
Καιρός -
Νέφη Clear
Πίεση
Change -
Raw K33V 180435Z AUTO 29003KT 10SM CLR M05/M10 A3025 RMK AO2 T10551096

VFR

-5°C / °C

[Περισσότερο]
Άνεμος variable 0kt
Ορατότητα >10km
Καιρός -
Νέφη Clear
Πίεση
Change -
Raw K33V 180415Z AUTO 00000KT 10SM CLR M05/M10 A3025 RMK AO2 T10501103

VFR

-3.4°C / °C

[Περισσότερο]
Άνεμος 300º 3kt
Ορατότητα >10km
Καιρός -
Νέφη Clear
Πίεση
Change -
Raw K33V 180355Z AUTO 30003KT 10SM CLR M03/M10 A3025 RMK AO2 T10341105 400271090

VFR

-4.1°C / °C

[Περισσότερο]
Άνεμος variable 0kt
Ορατότητα >10km
Καιρός -
Νέφη Clear
Πίεση
Change -
Raw K33V 180335Z AUTO 00000KT 10SM CLR M04/M10 A3025 RMK AO2 T10411104

VFR

-4.2°C / °C

[Περισσότερο]
Άνεμος 350º 3kt
Ορατότητα >10km
Καιρός -
Νέφη Clear
Πίεση
Change -
Raw K33V 180315Z AUTO 35003KT 10SM CLR M04/M10 A3024 RMK AO2 T10421103

VFR

-4.6°C / °C

[Περισσότερο]
Άνεμος 360º 4kt
Ορατότητα >10km
Καιρός -
Νέφη Clear
Πίεση
Change -
Raw K33V 180255Z AUTO 36004KT 10SM CLR M05/M10 A3023 RMK AO2 T10461101

VFR

-3.7°C / °C

[Περισσότερο]
Άνεμος 20º 6kt
Ορατότητα >10km
Καιρός -
Νέφη Clear
Πίεση
Change -
Raw K33V 180235Z AUTO 02006KT 10SM CLR M04/M10 A3022 RMK AO2 T10371102

VFR

-2.7°C / -9.5°C

[Περισσότερο]
Άνεμος 40º 3kt
Ορατότητα >10km
Καιρός -
Νέφη Clear
Πίεση
Change -
Raw K33V 180215Z AUTO 04003KT 10SM CLR M03/M09 A3021 RMK AO2 T10271095

VFR

-1.7°C / -9.5°C

[Περισσότερο]
Άνεμος 40º 5kt
Ορατότητα >10km
Καιρός -
Νέφη Clear
Πίεση
Change -
Raw K33V 180155Z AUTO 04005KT 10SM CLR M02/M09 A3021 RMK AO2 T10171095

VFR

-1.3°C / °C

[Περισσότερο]
Άνεμος 40º 7kt
Ορατότητα >10km
Καιρός -
Νέφη Scattered Clouds 4400ft
Πίεση
Change -
Raw K33V 180135Z AUTO 04007KT 10SM SCT044 M01/M10 A3021 RMK AO2 T10131100

VFR

-1.1°C / °C

[Περισσότερο]
Άνεμος 40º 9kt
Ορατότητα >10km
Καιρός -
Νέφη Scattered Clouds 4600ft
Πίεση
Change -
Raw K33V 180115Z AUTO 04009KT 10SM SCT046 M01/M11 A3020 RMK AO2 T10111107

VFR

0°C / °C

[Περισσότερο]
Άνεμος 40º 9kt
Ορατότητα >10km
Καιρός -
Νέφη Clear
Πίεση
Change -
Raw K33V 180055Z AUTO 04009KT 10SM CLR 00/M10 A3020 RMK AO2 T00001103

VFR

1.3°C / -9.5°C

[Περισσότερο]
Άνεμος 360º 9kt
Ορατότητα >10km
Καιρός -
Νέφη Scattered Clouds 4200ft
Πίεση
Change -
Raw K33V 180035Z AUTO 36009KT 10SM SCT042 01/M09 A3019 RMK AO2 T00131095

VFR

1.3°C / -9.7°C

[Περισσότερο]
Άνεμος 350º variable 270º to 360º 8kt
Ορατότητα >10km
Καιρός -
Νέφη Scattered Clouds 4200ft
Πίεση
Change -
Raw K33V 180015Z AUTO 35008KT 270V360 10SM SCT042 01/M10 A3019 RMK AO2 T00131097

VFR

1.3°C / -9.8°C

[Περισσότερο]
Άνεμος 340º 8kt
Ορατότητα >10km
Καιρός -
Νέφη Broken Clouds 4200ft
Πίεση
Change -
Raw K33V 172355Z AUTO 34008KT 10SM BKN042 01/M10 A3019 RMK AO2 T00131098 10027 21013

VFR

1.6°C / -9.9°C

[Περισσότερο]
Άνεμος 330º 9kt Gust 19kt
Ορατότητα >10km
Καιρός -
Νέφη Broken Clouds 4400ft
Πίεση
Change -
Raw K33V 172335Z AUTO 33009G19KT 10SM BKN044 BKN050 02/M10 A3018 RMK AO2 T00161099

VFR

2.4°C / -9.9°C

[Περισσότερο]
Άνεμος 320º 9kt Gust 17kt
Ορατότητα >10km
Καιρός -
Νέφη Broken Clouds 4400ft
Πίεση
Change -
Raw K33V 172315Z AUTO 32009G17KT 10SM BKN044 BKN050 02/M10 A3018 RMK AO2 T00241099

VFR

1.6°C / °C

[Περισσότερο]
Άνεμος 350º variable 320º to 020º 9kt
Ορατότητα >10km
Καιρός -
Νέφη Scattered Clouds 4500ft
Πίεση
Change -
Raw K33V 172255Z AUTO 35009KT 320V020 10SM SCT045 SCT050 02/M10 A3017 RMK AO2 T00161103

VFR

2.7°C / -9.1°C

[Περισσότερο]
Άνεμος 330º 11kt Gust 17kt
Ορατότητα >10km
Καιρός -
Νέφη Scattered Clouds 4500ft
Πίεση
Change -
Raw K33V 172235Z AUTO 33011G17KT 10SM SCT045 SCT060 03/M09 A3017 RMK AO2 T00271091

VFR

2.5°C / -9.6°C

[Περισσότερο]
Άνεμος 340º 11kt Gust 16kt
Ορατότητα >10km
Καιρός -
Νέφη Scattered Clouds 4500ft
Πίεση
Change -
Raw K33V 172215Z AUTO 34011G16KT 10SM SCT045 SCT060 03/M10 A3016 RMK AO2 T00251096

VFR

2.5°C / -9.4°C

[Περισσότερο]
Άνεμος 320º variable 270º to 330º 11kt Gust 16kt
Ορατότητα >10km
Καιρός -
Νέφη Scattered Clouds 4500ft
Πίεση
Change -
Raw K33V 172155Z AUTO 32011G16KT 270V330 10SM SCT045 SCT050 03/M09 A3016 RMK AO2 T00251094

VFR

1.3°C / °C

[Περισσότερο]
Άνεμος 340º 11kt
Ορατότητα >10km
Καιρός -
Νέφη Scattered Clouds 4700ft
Πίεση
Change -
Raw K33V 172135Z AUTO 34011KT 10SM SCT047 SCT050 01/M10 A3017 RMK AO2 T00131100

Current satellite images for Walden, Ηνωμένες Πολιτείες της Αμερικής

Η ένδειξη τοποθεσίας τοποθετείται στο Walden. [Περισσότερο]

The real-time satellite image combines visible light during daytime with infrared radiation during nighttime. At night, the image is not dark as infrared radiation can detect temperature differences. Unfortunately, low clouds and fog are difficult to distinguish from ground temperatures and thus can be almost invisible during the night. Meteosat satellite images for Europe are updated in real-time every 5 minutes. GOES-16/GOES-17 (North & South America) and Himawari (Asia) images update every 10 minutes.

Ραντάρ και πρόγνωση υετού μικρής δειάρκειας για Walden

Ο δείκτης θέσης τοποθετείται στο Walden. Αυτή η κινούμενη εικόνα δείχνει την ραντάρ βροχόπτωσης για την τελευταία ώρα, καθώς και 1πρόγνωση h. Ψεκάδες (ψιλόβροχο) ή ελαφρά χιονόπτωση, μπορεί να είναι αόρατα στο ραντάρ. Η ένταση βροχόπτωσης κωδικοποιείται με χρώματα που κυμαίνονται από γαλάζιο έως σκούρο μοβ.